Time;durP1;ratioP1;P1;durP2;ratioP2;P2;SDS_P1;SDS_P2;PMS_P1;PMS_P2;Temp;Humidity;BMP_temperature;BMP_pressure;BME280_temperature;BME280_humidity;BME280_pressure;Samples;Min_cycle;Max_cycle;Signal;HPM_P1;HPM_P2
2023/10/10 00:00:49;;;;;;;4.88;2.30;;;14.90;99.90;;;;;;4942921;29;20626;-85
2023/10/10 00:03:17;;;;;;;4.47;2.42;;;15.00;99.90;;;;;;4942798;29;20694;-84
2023/10/10 00:05:45;;;;;;;8.63;2.95;;;15.00;99.90;;;;;;4945935;29;20209;-84
2023/10/10 00:08:12;;;;;;;7.72;2.72;;;15.00;99.90;;;;;;4943636;29;20250;-84
2023/10/10 00:10:45;;;;;;;4.30;2.60;;;15.00;99.90;;;;;;4943186;29;20227;-84
2023/10/10 00:13:16;;;;;;;9.07;2.33;;;15.00;99.90;;;;;;4943914;29;20215;-85
2023/10/10 00:15:49;;;;;;;4.95;2.67;;;15.20;99.90;;;;;;4943058;29;20211;-85
2023/10/10 00:18:21;;;;;;;7.45;2.72;;;15.00;99.90;;;;;;4940019;29;20226;-86
2023/10/10 00:21:06;;;;;;;5.57;2.53;;;15.00;99.90;;;;;;4942407;29;20204;-83
2023/10/10 00:23:38;;;;;;;4.45;2.85;;;15.00;99.90;;;;;;4939736;29;20206;-85
2023/10/10 00:26:08;;;;;;;8.63;2.92;;;15.10;99.90;;;;;;4940783;29;20248;-84
2023/10/10 00:28:41;;;;;;;5.65;2.42;;;15.10;99.90;;;;;;4940670;29;20227;-85
2023/10/10 00:31:10;;;;;;;3.60;2.22;;;15.10;99.90;;;;;;4942748;29;20235;-86
2023/10/10 00:33:38;;;;;;;4.60;2.70;;;15.10;99.90;;;;;;4940283;29;20711;-84
2023/10/10 00:36:07;;;;;;;4.00;2.30;;;15.20;99.90;;;;;;4941730;29;20212;-85
2023/10/10 00:38:34;;;;;;;4.68;2.30;;;15.20;99.90;;;;;;4936578;29;20242;-87
2023/10/10 00:41:06;;;;;;;6.03;2.53;;;15.10;99.90;;;;;;4938840;29;20231;-86
2023/10/10 00:43:32;;;;;;;7.82;2.35;;;15.10;99.90;;;;;;4944126;29;20254;-85
2023/10/10 00:46:04;;;;;;;5.43;2.10;;;15.10;99.90;;;;;;4937292;29;20223;-86
2023/10/10 00:48:33;;;;;;;4.10;2.15;;;15.10;99.90;;;;;;4951904;29;20226;-84
2023/10/10 00:51:06;;;;;;;5.97;2.42;;;15.10;99.90;;;;;;4949634;29;20223;-86
2023/10/10 00:53:34;;;;;;;5.30;2.65;;;15.10;99.90;;;;;;4944686;29;20266;-85
2023/10/10 00:56:05;;;;;;;6.22;2.40;;;15.10;99.90;;;;;;4946232;29;20218;-87
2023/10/10 00:58:36;;;;;;;5.43;2.63;;;15.10;99.90;;;;;;4944537;29;20651;-85
2023/10/10 01:01:09;;;;;;;3.38;2.35;;;15.10;99.90;;;;;;4940321;29;20205;-86
2023/10/10 01:03:39;;;;;;;4.45;2.63;;;15.10;99.90;;;;;;4943710;29;20214;-86
2023/10/10 01:06:07;;;;;;;5.45;2.47;;;15.00;99.90;;;;;;4941344;29;20207;-84
2023/10/10 01:08:53;;;;;;;3.60;2.55;;;15.00;99.90;;;;;;4942561;29;20223;-85
2023/10/10 01:11:21;;;;;;;7.75;2.60;;;15.00;99.90;;;;;;4932555;29;20250;-86
2023/10/10 01:13:47;;;;;;;6.63;2.63;;;15.00;99.90;;;;;;4942164;29;20200;-86
2023/10/10 01:16:17;;;;;;;7.90;2.92;;;15.00;99.90;;;;;;4943239;29;20630;-85
2023/10/10 01:18:51;;;;;;;4.32;2.80;;;15.10;99.90;;;;;;4942924;29;20218;-86
2023/10/10 01:21:29;;;;;;;5.78;3.33;;;15.00;99.90;;;;;;4942436;29;20274;-85
2023/10/10 01:24:00;;;;;;;5.45;3.42;;;15.00;99.90;;;;;;4943552;29;20559;-86
2023/10/10 01:26:30;;;;;;;6.35;3.40;;;14.90;99.90;;;;;;4931769;29;20210;-84
2023/10/10 01:29:12;;;;;;;7.85;3.45;;;14.90;99.90;;;;;;4943789;29;20245;-85
2023/10/10 01:31:42;;;;;;;6.95;3.30;;;14.90;99.90;;;;;;4939482;29;20271;-86
2023/10/10 01:34:09;;;;;;;6.00;3.30;;;15.00;99.90;;;;;;4943710;29;20202;-86
2023/10/10 01:36:38;;;;;;;9.60;3.22;;;15.10;99.90;;;;;;4943143;29;20207;-86
2023/10/10 01:39:24;;;;;;;6.50;3.10;;;14.90;99.90;;;;;;4935069;29;20239;-85
2023/10/10 01:41:51;;;;;;;4.53;3.05;;;14.90;99.90;;;;;;4941752;29;20199;-86
2023/10/10 01:44:22;;;;;;;7.20;3.35;;;14.90;99.90;;;;;;4942207;29;20215;-85
2023/10/10 01:46:51;;;;;;;7.25;3.22;;;14.90;99.90;;;;;;4945775;29;20203;-86
2023/10/10 01:49:21;;;;;;;8.10;3.30;;;14.80;99.90;;;;;;4943162;29;20226;-83
2023/10/10 01:51:54;;;;;;;5.18;2.97;;;14.80;99.90;;;;;;4943779;28;20238;-85
2023/10/10 01:54:22;;;;;;;6.13;3.05;;;14.70;99.90;;;;;;4943398;29;20563;-85
2023/10/10 01:56:51;;;;;;;5.47;3.47;;;14.70;99.90;;;;;;4943628;29;20206;-86
2023/10/10 01:59:24;;;;;;;5.88;3.58;;;14.80;99.90;;;;;;4943179;29;20235;-85
2023/10/10 02:01:53;;;;;;;8.02;3.00;;;14.70;99.90;;;;;;4939223;29;20282;-86
2023/10/10 02:04:27;;;;;;;5.00;2.97;;;14.70;99.90;;;;;;4943419;29;20230;-86
2023/10/10 02:06:57;;;;;;;9.25;3.20;;;14.70;99.90;;;;;;4940354;29;20293;-86
2023/10/10 02:09:33;;;;;;;6.53;3.28;;;14.70;99.90;;;;;;4937002;29;20242;-86
2023/10/10 02:12:08;;;;;;;6.85;3.42;;;14.60;99.90;;;;;;4941665;29;20754;-85
2023/10/10 02:14:36;;;;;;;7.50;3.13;;;14.50;99.90;;;;;;4943649;29;20234;-84
2023/10/10 02:17:19;;;;;;;4.78;2.72;;;14.60;99.90;;;;;;4932275;29;20207;-85
2023/10/10 02:19:53;;;;;;;7.47;3.00;;;14.60;99.90;;;;;;4941749;29;20247;-85
2023/10/10 02:22:33;;;;;;;5.35;2.50;;;14.50;99.90;;;;;;4941652;29;20203;-86
2023/10/10 02:25:36;;;;;;;8.55;2.78;;;14.60;99.90;;;;;;4939908;29;20277;-85
2023/10/10 02:28:03;;;;;;;5.60;2.50;;;14.50;99.90;;;;;;4941536;29;20233;-86
2023/10/10 02:30:36;;;;;;;3.22;2.60;;;14.50;99.90;;;;;;4941495;29;20667;-86
2023/10/10 02:33:14;;;;;;;6.50;2.50;;;14.70;99.90;;;;;;4937962;29;20203;-86
2023/10/10 02:35:55;;;;;;;4.05;2.40;;;14.50;99.90;;;;;;4942042;29;20199;-86
2023/10/10 02:38:31;;;;;;;4.30;2.58;;;14.70;99.90;;;;;;4943609;29;20266;-85
2023/10/10 02:41:14;;;;;;;3.60;2.50;;;15.20;99.90;;;;;;4943161;29;20210;-86
2023/10/10 02:43:54;;;;;;;6.80;3.15;;;14.40;99.90;;;;;;4943282;29;20232;-85
2023/10/10 02:46:28;;;;;;;5.80;2.25;;;14.60;99.90;;;;;;4943220;29;20221;-85
2023/10/10 02:48:56;;;;;;;7.53;3.22;;;14.40;99.90;;;;;;4941684;29;20227;-85
2023/10/10 02:51:22;;;;;;;3.90;2.50;;;14.50;99.90;;;;;;4941809;29;20230;-86
2023/10/10 02:53:51;;;;;;;5.20;2.63;;;14.40;99.90;;;;;;4940266;29;20227;-85
2023/10/10 02:56:19;;;;;;;8.60;2.75;;;14.50;99.90;;;;;;4940101;29;20644;-86
2023/10/10 02:58:48;;;;;;;4.55;2.20;;;14.40;99.90;;;;;;4942235;29;20298;-86
2023/10/10 03:01:50;;;;;;;7.13;2.70;;;14.40;99.90;;;;;;4942052;29;20207;-86
2023/10/10 03:04:09;;;;;;;4.47;2.38;;;14.40;99.90;;;;;;4936987;29;20211;-86
2023/10/10 03:06:37;;;;;;;4.25;2.63;;;14.50;99.90;;;;;;4941994;29;20207;-86
2023/10/10 03:09:14;;;;;;;3.85;2.38;;;14.50;99.90;;;;;;4933515;29;20290;-84
2023/10/10 03:11:53;;;;;;;7.75;2.80;;;14.50;99.90;;;;;;4944927;29;20242;-85
2023/10/10 03:14:26;;;;;;;4.05;2.72;;;14.60;99.90;;;;;;4941990;29;20231;-86
2023/10/10 03:17:03;;;;;;;3.17;2.47;;;14.50;99.90;;;;;;4942223;29;20228;-84
2023/10/10 03:19:38;;;;;;;6.57;2.47;;;14.50;99.90;;;;;;4937201;29;20270;-83
2023/10/10 03:25:05;;;;;;;5.28;2.65;;;14.50;99.90;;;;;;4939359;29;20199;-86
2023/10/10 03:27:49;;;;;;;3.40;2.47;;;14.40;99.90;;;;;;4944657;29;20203;-86
2023/10/10 03:30:21;;;;;;;3.60;2.20;;;14.40;99.90;;;;;;4937370;29;20203;-86
2023/10/10 03:32:59;;;;;;;5.93;2.28;;;14.40;99.90;;;;;;4941541;29;20251;-86
2023/10/10 03:35:51;;;;;;;5.80;2.65;;;14.40;99.90;;;;;;4940686;29;20238;-84
2023/10/10 03:38:45;;;;;;;5.60;2.35;;;14.40;99.90;;;;;;4938481;29;20695;-84
2023/10/10 05:23:29;;;;;;;2.67;2.45;;;14.40;99.90;;;;;;4941013;29;20199;-84
2023/10/10 05:25:50;;;;;;;8.65;5.10;;;14.50;99.90;;;;;;4942468;29;20198;-85
2023/10/10 05:28:19;;;;;;;8.85;5.65;;;14.50;99.90;;;;;;4941917;29;20600;-86
2023/10/10 05:30:46;;;;;;;6.97;4.72;;;14.50;99.90;;;;;;4941644;29;20290;-84
2023/10/10 05:33:19;;;;;;;6.95;5.50;;;14.50;99.90;;;;;;4939987;29;20233;-85
2023/10/10 05:35:48;;;;;;;8.65;5.03;;;14.60;99.90;;;;;;4939655;29;20644;-85
2023/10/10 05:38:16;;;;;;;6.13;5.22;;;14.60;99.90;;;;;;4941160;29;20707;-84
2023/10/10 05:40:46;;;;;;;7.82;4.57;;;14.60;99.90;;;;;;4942271;29;20302;-83
2023/10/10 05:43:15;;;;;;;9.45;4.95;;;14.60;99.90;;;;;;4940351;29;20199;-85
2023/10/10 05:45:42;;;;;;;7.00;4.88;;;14.70;99.90;;;;;;4939325;29;20246;-84
2023/10/10 05:48:09;;;;;;;9.65;5.25;;;14.60;99.90;;;;;;4941074;29;20641;-84
2023/10/10 05:50:37;;;;;;;9.63;5.25;;;14.60;99.90;;;;;;4940280;29;20218;-84
2023/10/10 05:53:07;;;;;;;7.38;4.80;;;14.60;99.90;;;;;;4935241;29;20227;-84
2023/10/10 05:55:35;;;;;;;6.97;4.97;;;14.60;99.90;;;;;;4943513;29;20219;-86
2023/10/10 05:58:02;;;;;;;7.80;5.07;;;14.60;99.90;;;;;;4941954;29;20211;-85
2023/10/10 06:00:36;;;;;;;6.18;4.55;;;14.60;99.90;;;;;;4942737;29;20207;-86
2023/10/10 06:03:03;;;;;;;7.80;4.55;;;14.60;99.90;;;;;;4935356;29;20214;-85
2023/10/10 06:05:30;;;;;;;7.20;4.63;;;14.60;99.90;;;;;;4942814;29;20238;-85
2023/10/10 06:07:58;;;;;;;5.57;4.72;;;14.60;99.90;;;;;;4940504;28;20207;-85
2023/10/10 06:10:31;;;;;;;6.10;4.65;;;14.60;99.90;;;;;;4937433;29;20219;-85
2023/10/10 06:13:03;;;;;;;6.68;4.60;;;15.10;99.90;;;;;;4938657;29;20653;-84
2023/10/10 06:15:33;;;;;;;8.48;4.32;;;14.50;99.90;;;;;;4939302;29;20671;-84
2023/10/10 06:18:08;;;;;;;8.25;5.20;;;14.40;99.90;;;;;;4938932;29;20299;-84
2023/10/10 06:20:40;;;;;;;5.95;5.03;;;14.50;99.90;;;;;;4941729;29;20202;-84
2023/10/10 06:23:08;;;;;;;6.35;5.13;;;14.40;99.90;;;;;;4939436;29;20203;-84
2023/10/10 06:25:37;;;;;;;8.93;5.38;;;14.40;99.90;;;;;;4942486;29;20207;-85
2023/10/10 06:28:06;;;;;;;9.43;4.72;;;14.40;99.90;;;;;;4935728;29;20230;-86
2023/10/10 06:30:36;;;;;;;8.50;5.07;;;14.40;99.90;;;;;;4942738;29;20207;-83
2023/10/10 06:33:10;;;;;;;10.75;5.93;;;14.40;99.90;;;;;;4942481;28;20282;-83
2023/10/10 06:35:38;;;;;;;7.65;5.72;;;14.50;99.90;;;;;;4943714;29;20294;-83
2023/10/10 06:38:10;;;;;;;8.63;5.75;;;14.60;99.90;;;;;;4944758;29;20706;-85
2023/10/10 06:40:42;;;;;;;10.65;5.68;;;14.60;99.90;;;;;;4943384;29;20269;-82
2023/10/10 06:43:09;;;;;;;12.90;6.32;;;14.60;99.90;;;;;;4934636;29;20195;-85
2023/10/10 06:45:37;;;;;;;11.70;6.78;;;14.70;99.90;;;;;;4944826;29;20222;-83
2023/10/10 06:48:04;;;;;;;13.98;7.18;;;14.70;99.90;;;;;;4949029;28;20667;-83
2023/10/10 06:50:32;;;;;;;12.55;7.00;;;14.80;99.90;;;;;;4936258;29;20211;-84
2023/10/10 06:53:00;;;;;;;12.57;7.47;;;14.90;99.90;;;;;;4940486;29;20222;-83
2023/10/10 06:55:36;;;;;;;11.50;6.72;;;15.00;99.90;;;;;;4940973;29;20293;-81
2023/10/10 06:58:05;;;;;;;9.30;6.00;;;15.10;99.90;;;;;;4943495;29;20222;-81
2023/10/10 07:00:44;;;;;;;11.88;6.15;;;15.10;99.90;;;;;;4940951;29;20464;-83
2023/10/10 07:03:18;;;;;;;9.07;6.45;;;15.10;99.90;;;;;;4936180;29;20238;-83
2023/10/10 07:05:45;;;;;;;12.05;6.30;;;15.20;99.90;;;;;;4940383;29;20575;-83
2023/10/10 07:08:19;;;;;;;10.32;6.38;;;15.30;99.90;;;;;;4939263;29;20467;-82
2023/10/10 07:10:46;;;;;;;14.15;6.78;;;15.30;99.90;;;;;;4938018;29;20266;-83
2023/10/10 07:13:14;;;;;;;10.80;6.55;;;15.30;99.90;;;;;;4940051;29;20227;-82
2023/10/10 07:15:42;;;;;;;12.88;6.57;;;15.40;99.90;;;;;;4933242;29;20300;-84
2023/10/10 07:18:14;;;;;;;11.60;7.00;;;15.40;99.90;;;;;;4939633;29;20635;-82
2023/10/10 07:23:36;;;;;;;13.07;7.38;;;15.60;99.90;;;;;;4934224;29;20210;-82
2023/10/10 07:26:05;;;;;;;10.65;6.45;;;15.60;99.90;;;;;;4931837;29;20270;-82
2023/10/10 07:28:47;;;;;;;14.43;6.85;;;15.70;99.90;;;;;;4939074;29;20233;-82
2023/10/10 07:31:18;;;;;;;8.30;5.22;;;15.70;99.90;;;;;;4934233;29;20202;-82
2023/10/10 07:33:55;;;;;;;8.80;5.93;;;15.70;99.90;;;;;;4941863;29;20724;-83
2023/10/10 07:36:25;;;;;;;8.70;6.88;;;15.70;99.90;;;;;;4941258;29;20228;-82
2023/10/10 07:39:31;;;;;;;8.23;6.15;;;15.80;99.90;;;;;;4935625;29;20231;-84
2023/10/10 07:41:45;;;;;;;10.15;7.28;;;15.80;99.90;;;;;;4943995;29;20207;-83
2023/10/10 07:44:16;;;;;;;11.25;6.10;;;15.80;99.90;;;;;;4943584;29;20663;-83
2023/10/10 07:47:07;;;;;;;11.65;6.35;;;15.90;99.90;;;;;;4941994;29;20298;-82
2023/10/10 07:49:28;;;;;;;10.13;6.25;;;16.00;99.90;;;;;;4937815;29;20242;-83
2023/10/10 07:52:02;;;;;;;14.15;6.97;;;16.00;99.90;;;;;;4942555;29;20766;-83
2023/10/10 07:54:38;;;;;;;11.15;6.63;;;15.90;99.90;;;;;;4942736;29;20207;-82
2023/10/10 07:57:07;;;;;;;10.25;6.38;;;16.00;99.90;;;;;;4941345;29;20210;-83
2023/10/10 07:59:36;;;;;;;10.18;6.32;;;16.20;99.90;;;;;;4942678;29;20227;-83
2023/10/10 08:02:19;;;;;;;16.13;7.10;;;16.30;99.90;;;;;;4942736;29;20211;-84
2023/10/10 08:04:49;;;;;;;12.43;6.72;;;16.30;99.90;;;;;;4942185;29;20207;-82
2023/10/10 08:07:18;;;;;;;13.30;6.28;;;16.40;99.90;;;;;;4943259;29;20211;-84
2023/10/10 08:09:46;;;;;;;11.15;6.40;;;16.40;99.90;;;;;;4939684;29;20235;-83
2023/10/10 08:12:13;;;;;;;10.70;7.25;;;16.50;99.90;;;;;;4942517;29;20267;-83
2023/10/10 08:14:42;;;;;;;13.60;7.13;;;16.60;99.90;;;;;;4934463;29;20210;-84
2023/10/10 08:17:18;;;;;;;9.90;6.35;;;16.70;99.90;;;;;;4941122;29;20270;-84
2023/10/10 08:19:50;;;;;;;13.48;7.75;;;16.60;99.90;;;;;;4940947;29;20238;-83
2023/10/10 08:22:19;;;;;;;11.60;7.22;;;16.60;99.90;;;;;;4941349;29;20262;-83
2023/10/10 08:24:46;;;;;;;14.20;8.05;;;16.60;99.90;;;;;;4941343;29;20701;-82
2023/10/10 08:27:14;;;;;;;10.57;7.20;;;16.70;99.90;;;;;;4939961;29;20218;-84
2023/10/10 08:29:42;;;;;;;11.45;7.30;;;16.70;99.90;;;;;;4940079;29;20234;-82
2023/10/10 08:32:09;;;;;;;16.13;7.90;;;16.70;99.90;;;;;;4941124;29;20237;-84
2023/10/10 08:34:38;;;;;;;16.85;7.70;;;16.80;99.90;;;;;;4941273;29;20298;-82
2023/10/10 08:37:05;;;;;;;14.27;8.10;;;17.00;99.90;;;;;;4942181;29;20241;-84
2023/10/10 08:39:36;;;;;;;13.65;7.75;;;17.10;99.90;;;;;;4941349;29;20227;-83
2023/10/10 08:42:06;;;;;;;16.55;7.80;;;17.10;99.90;;;;;;4942265;29;20211;-84
2023/10/10 08:44:38;;;;;;;14.75;8.77;;;17.10;99.90;;;;;;4941647;29;20234;-85
2023/10/10 08:47:15;;;;;;;14.82;8.57;;;17.10;99.90;;;;;;4931435;29;20444;-82
2023/10/10 08:49:47;;;;;;;16.38;8.77;;;17.20;99.90;;;;;;4941589;29;20257;-84
2023/10/10 08:52:15;;;;;;;19.77;9.27;;;17.20;99.90;;;;;;4943725;29;20893;-84
2023/10/10 08:54:44;;;;;;;13.52;8.00;;;17.10;99.90;;;;;;4953582;29;20206;-82
2023/10/10 08:57:11;;;;;;;14.50;8.15;;;17.30;99.90;;;;;;4955340;29;20210;-82
2023/10/10 08:59:42;;;;;;;17.30;7.93;;;17.20;99.90;;;;;;4950029;29;20230;-82
2023/10/10 09:02:12;;;;;;;15.80;8.63;;;17.40;99.90;;;;;;4938353;29;20293;-83
2023/10/10 09:04:39;;;;;;;11.82;7.50;;;17.40;99.90;;;;;;4945994;28;20199;-83
2023/10/10 09:07:09;;;;;;;11.45;7.50;;;17.40;99.90;;;;;;4943184;29;20419;-81
2023/10/10 09:09:37;;;;;;;12.38;7.60;;;17.40;99.90;;;;;;4949706;29;20218;-82
2023/10/10 09:12:12;;;;;;;13.00;7.25;;;17.30;99.90;;;;;;4952368;29;20207;-82
2023/10/10 09:14:40;;;;;;;11.50;8.10;;;17.50;99.90;;;;;;4941540;29;20233;-83
2023/10/10 09:17:11;;;;;;;12.30;8.35;;;17.70;99.90;;;;;;4942298;29;20203;-82
2023/10/10 09:19:46;;;;;;;14.35;8.68;;;17.80;99.90;;;;;;4944278;29;20238;-82
2023/10/10 09:22:25;;;;;;;13.32;8.40;;;18.00;99.90;;;;;;4934003;29;20636;-82
2023/10/10 09:24:55;;;;;;;11.18;7.43;;;17.90;99.90;;;;;;4948089;29;20237;-83
2023/10/10 09:27:27;;;;;;;10.35;7.20;;;17.90;99.90;;;;;;4939819;29;20263;-83
2023/10/10 09:29:56;;;;;;;10.65;7.68;;;17.80;99.90;;;;;;4939390;29;20306;-81
2023/10/10 09:32:36;;;;;;;12.93;8.95;;;17.80;99.90;;;;;;4940256;29;20250;-84
2023/10/10 09:35:08;;;;;;;16.20;9.85;;;17.80;99.90;;;;;;4940367;29;20727;-84
2023/10/10 09:37:38;;;;;;;14.90;8.68;;;17.80;99.90;;;;;;4939953;29;20551;-82
2023/10/10 09:40:15;;;;;;;12.75;8.82;;;17.90;99.90;;;;;;4945322;29;20234;-83
2023/10/10 09:43:00;;;;;;;13.60;9.45;;;18.10;99.90;;;;;;4941573;29;20199;-82
2023/10/10 09:49:16;;;;;;;14.73;8.68;;;18.90;99.90;;;;;;5161913;27;20549;-80
2023/10/10 09:54:25;;;;;;;12.65;8.00;;;18.80;99.90;;;;;;5155452;27;20214;-82
2023/10/10 09:56:54;;;;;;;11.27;7.95;;;18.70;99.90;;;;;;5155701;27;20200;-82
2023/10/10 09:59:28;;;;;;;11.63;7.80;;;18.50;99.90;;;;;;5155568;27;20234;-81
2023/10/10 10:01:59;;;;;;;12.02;7.68;;;18.30;99.90;;;;;;5145388;27;20208;-83
2023/10/10 10:04:37;;;;;;;10.95;7.35;;;18.20;99.90;;;;;;5144720;27;20225;-82
2023/10/10 10:07:27;;;;;;;12.38;7.70;;;18.10;99.90;;;;;;5153790;27;20268;-82
2023/10/10 10:10:16;;;;;;;11.57;7.50;;;18.10;99.90;;;;;;5145727;27;20660;-82
2023/10/10 10:13:03;;;;;;;11.75;7.93;;;18.40;99.90;;;;;;5156268;27;20195;-81
2023/10/10 10:15:49;;;;;;;12.32;7.70;;;18.80;99.90;;;;;;5149052;27;20290;-82
2023/10/10 10:18:29;;;;;;;16.10;9.07;;;19.00;99.90;;;;;;5148450;27;20220;-82
2023/10/10 10:21:16;;;;;;;11.00;7.57;;;19.10;99.90;;;;;;5155414;27;20203;-83
2023/10/10 10:23:46;;;;;;;11.75;7.93;;;19.20;99.90;;;;;;5155894;27;20200;-82
2023/10/10 10:26:22;;;;;;;12.63;8.30;;;19.20;99.90;;;;;;5147897;27;20200;-81
2023/10/10 10:28:56;;;;;;;17.10;8.77;;;19.20;99.90;;;;;;5155144;27;20247;-82
2023/10/10 10:31:28;;;;;;;15.18;9.73;;;19.30;99.90;;;;;;5147613;27;20206;-81
2023/10/10 10:34:10;;;;;;;16.38;10.73;;;19.40;99.90;;;;;;5152662;27;20604;-82
2023/10/10 10:36:42;;;;;;;15.88;10.63;;;19.40;99.90;;;;;;5155411;27;20757;-82
2023/10/10 10:39:21;;;;;;;16.13;10.98;;;19.80;99.90;;;;;;5154435;27;20310;-82
2023/10/10 10:41:53;;;;;;;15.10;9.73;;;20.30;99.90;;;;;;5152294;27;20282;-82
2023/10/10 10:44:44;;;;;;;15.00;9.70;;;20.30;99.90;;;;;;5147685;27;20662;-83
2023/10/10 10:47:13;;;;;;;14.88;10.38;;;20.40;99.90;;;;;;5149766;27;20663;-84
2023/10/10 10:49:40;;;;;;;14.88;10.07;;;20.50;99.90;;;;;;5153042;27;20712;-85
2023/10/10 10:52:37;;;;;;;16.15;10.30;;;20.80;99.90;;;;;;5141871;27;20564;-83
2023/10/10 10:55:22;;;;;;;18.70;11.27;;;20.80;99.90;;;;;;5150477;27;20560;-83
2023/10/10 10:57:49;;;;;;;16.63;10.63;;;20.80;99.90;;;;;;5150238;27;20196;-82
2023/10/10 11:00:29;;;;;;;19.48;10.45;;;21.20;99.90;;;;;;5131085;27;20199;-82
2023/10/10 11:02:59;;;;;;;14.15;9.77;;;21.40;99.90;;;;;;5138551;27;20214;-84
2023/10/10 11:05:27;;;;;;;18.90;10.23;;;21.60;99.90;;;;;;5139484;27;20200;-83
2023/10/10 11:08:10;;;;;;;17.77;10.95;;;21.20;99.90;;;;;;5139678;27;20287;-83
2023/10/10 11:10:38;;;;;;;15.68;10.13;;;21.10;99.90;;;;;;5140377;27;20634;-83
2023/10/10 11:13:07;;;;;;;16.13;9.98;;;20.90;99.90;;;;;;5139780;27;20204;-84
2023/10/10 11:15:38;;;;;;;14.73;10.30;;;20.70;99.90;;;;;;5136690;27;20204;-82
2023/10/10 11:18:08;;;;;;;19.58;11.25;;;20.60;99.90;;;;;;5137825;27;20212;-82
2023/10/10 11:20:55;;;;;;;16.10;9.93;;;20.60;99.90;;;;;;5131434;27;20208;-81
2023/10/10 11:23:41;;;;;;;12.90;9.32;;;20.60;99.90;;;;;;5125655;27;20646;-82
2023/10/10 11:26:09;;;;;;;15.38;9.93;;;20.60;99.90;;;;;;5137275;27;20575;-83
2023/10/10 11:28:45;;;;;;;15.57;9.60;;;20.50;99.90;;;;;;5138711;27;20281;-82
2023/10/10 11:31:14;;;;;;;12.73;8.95;;;20.30;99.90;;;;;;5132356;27;20564;-82
2023/10/10 11:33:55;;;;;;;12.73;9.15;;;20.50;99.90;;;;;;5138171;27;20201;-82
2023/10/10 11:36:37;;;;;;;13.52;9.32;;;20.50;99.90;;;;;;5139658;27;20568;-83
2023/10/10 11:39:17;;;;;;;13.07;9.18;;;20.70;99.90;;;;;;5131369;27;20224;-83
2023/10/10 11:41:46;;;;;;;13.27;8.77;;;20.60;99.90;;;;;;5137630;27;20210;-83
2023/10/10 11:44:18;;;;;;;14.63;9.30;;;21.00;99.90;;;;;;5138607;27;20204;-83
2023/10/10 11:46:48;;;;;;;14.43;9.60;;;21.10;99.90;;;;;;5137423;27;20239;-83
2023/10/10 11:49:16;;;;;;;14.57;9.70;;;21.50;99.90;;;;;;5138830;27;20216;-83
2023/10/10 11:51:43;;;;;;;16.25;9.50;;;20.90;99.90;;;;;;5136834;27;20631;-84
2023/10/10 11:54:11;;;;;;;13.98;10.30;;;20.80;99.90;;;;;;5135585;27;20197;-82
2023/10/10 11:56:38;;;;;;;13.30;9.15;;;20.70;99.90;;;;;;5130476;27;20196;-83
2023/10/10 11:59:09;;;;;;;14.20;9.40;;;20.80;99.90;;;;;;5136371;27;20223;-83
2023/10/10 12:01:54;;;;;;;16.55;9.85;;;20.80;99.90;;;;;;5138739;27;20200;-82
2023/10/10 12:04:30;;;;;;;15.13;9.73;;;20.80;99.90;;;;;;5132518;27;20659;-82
2023/10/10 12:06:59;;;;;;;15.52;10.52;;;20.80;99.90;;;;;;5138691;27;20200;-83
2023/10/10 12:09:27;;;;;;;16.23;10.60;;;20.80;99.90;;;;;;5137295;27;20264;-83
2023/10/10 12:11:58;;;;;;;15.00;9.93;;;20.90;99.90;;;;;;5138705;27;20200;-82
2023/10/10 12:14:29;;;;;;;14.50;9.52;;;21.10;99.90;;;;;;5139767;27;20273;-84
2023/10/10 12:16:58;;;;;;;15.05;9.75;;;21.20;99.90;;;;;;5126212;27;20197;-83
2023/10/10 12:19:25;;;;;;;15.52;9.73;;;21.20;99.90;;;;;;5136611;27;20697;-82
2023/10/10 12:21:53;;;;;;;14.27;9.82;;;21.10;99.90;;;;;;5132189;27;20636;-84
2023/10/10 12:24:20;;;;;;;15.23;9.73;;;21.10;99.90;;;;;;5138530;27;20212;-84
2023/10/10 12:26:54;;;;;;;15.85;8.93;;;21.10;99.90;;;;;;5138243;27;20595;-84
2023/10/10 12:29:22;;;;;;;13.27;9.40;;;21.10;99.90;;;;;;5137342;27;20251;-84
2023/10/10 12:31:55;;;;;;;13.80;9.15;;;21.10;99.90;;;;;;5139134;27;20203;-82
2023/10/10 12:34:23;;;;;;;14.13;10.18;;;21.00;99.90;;;;;;5137922;27;20215;-83
2023/10/10 12:36:50;;;;;;;14.65;9.05;;;20.90;99.90;;;;;;5122562;27;20701;-82
2023/10/10 12:39:19;;;;;;;16.17;9.55;;;20.90;99.90;;;;;;5135775;27;20660;-84
2023/10/10 12:41:47;;;;;;;13.43;8.90;;;21.00;99.90;;;;;;5141667;27;20249;-83
2023/10/10 12:44:14;;;;;;;13.27;8.40;;;20.80;99.90;;;;;;5133832;27;20204;-84
2023/10/10 12:46:41;;;;;;;13.88;9.60;;;20.90;99.90;;;;;;5141110;27;20219;-84
2023/10/10 12:49:11;;;;;;;15.05;9.60;;;21.00;99.90;;;;;;5141679;27;20692;-82
2023/10/10 12:51:44;;;;;;;13.43;8.90;;;21.20;99.90;;;;;;5136579;27;20197;-83
2023/10/10 12:54:13;;;;;;;14.95;9.40;;;21.30;99.90;;;;;;5140103;27;20215;-84
2023/10/10 12:56:48;;;;;;;16.08;9.90;;;21.20;99.90;;;;;;5140833;27;20199;-82
2023/10/10 12:59:18;;;;;;;12.18;8.20;;;21.10;99.90;;;;;;5134909;27;20602;-84
2023/10/10 13:01:45;;;;;;;13.18;8.77;;;21.10;99.90;;;;;;5138347;27;20705;-83
2023/10/10 13:04:17;;;;;;;16.63;8.38;;;21.30;99.90;;;;;;5137694;27;20224;-81
2023/10/10 13:06:51;;;;;;;12.50;8.18;;;21.40;99.90;;;;;;5125132;27;20683;-82
2023/10/10 13:09:19;;;;;;;14.88;8.05;;;21.40;99.90;;;;;;5136597;27;20216;-82
2023/10/10 13:11:45;;;;;;;12.57;8.45;;;21.80;99.90;;;;;;5120634;27;20291;-82
2023/10/10 13:14:17;;;;;;;13.23;8.13;;;22.30;99.90;;;;;;5130764;27;20718;-82
2023/10/10 13:17:13;;;;;;;13.38;7.80;;;22.20;99.90;;;;;;5119957;27;20242;-83
2023/10/10 13:19:40;;;;;;;14.43;8.23;;;22.40;99.90;;;;;;5138239;27;20227;-81
2023/10/10 13:22:07;;;;;;;13.23;7.03;;;22.40;99.90;;;;;;5125714;27;20264;-81
2023/10/10 13:24:34;;;;;;;12.50;7.63;;;22.30;99.90;;;;;;5134811;27;20203;-80
2023/10/10 13:27:00;;;;;;;14.38;7.15;;;22.40;99.90;;;;;;5127645;27;20205;-83
2023/10/10 13:29:27;;;;;;;10.25;6.85;;;22.20;99.90;;;;;;5131957;27;20224;-81
2023/10/10 13:31:57;;;;;;;13.05;7.63;;;22.20;99.90;;;;;;5130699;27;20215;-81
2023/10/10 13:34:24;;;;;;;10.40;6.68;;;22.10;99.90;;;;;;5138778;27;20722;-81
2023/10/10 13:36:50;;;;;;;13.18;7.35;;;22.30;99.90;;;;;;5138454;27;20292;-82
2023/10/10 13:39:33;;;;;;;9.57;6.45;;;22.50;99.90;;;;;;5130723;27;20223;-82
2023/10/10 13:41:59;;;;;;;12.93;6.43;;;22.50;99.90;;;;;;5135138;27;20226;-83
2023/10/10 13:44:26;;;;;;;12.45;6.55;;;22.20;99.90;;;;;;5126051;28;20225;-83
2023/10/10 13:46:54;;;;;;;12.07;7.10;;;22.00;99.90;;;;;;5129852;28;20218;-82
2023/10/10 13:49:21;;;;;;;9.90;6.32;;;22.00;99.90;;;;;;5126893;27;20686;-81
2023/10/10 13:51:52;;;;;;;9.88;6.72;;;21.80;99.90;;;;;;5126008;28;20618;-81
2023/10/10 13:54:19;;;;;;;9.75;6.13;;;22.00;99.90;;;;;;5137791;28;20208;-81
2023/10/10 13:56:46;;;;;;;11.90;6.80;;;22.00;99.90;;;;;;5136089;28;20196;-82
2023/10/10 13:59:15;;;;;;;13.90;6.93;;;22.10;99.90;;;;;;5130841;28;20243;-82
2023/10/10 14:01:42;;;;;;;13.07;5.90;;;22.00;99.90;;;;;;5134578;28;20207;-82
2023/10/10 14:04:15;;;;;;;12.65;6.60;;;22.10;99.90;;;;;;5129975;28;20206;-81
2023/10/10 14:06:47;;;;;;;10.20;6.05;;;21.90;99.90;;;;;;5129493;28;20204;-81
2023/10/10 14:09:21;;;;;;;11.80;6.13;;;21.90;99.90;;;;;;5126764;28;20252;-82
2023/10/10 14:11:49;;;;;;;11.05;5.68;;;22.10;99.90;;;;;;5134900;28;20192;-82
2023/10/10 14:14:16;;;;;;;9.40;5.70;;;22.00;99.90;;;;;;5134969;28;20292;-82
2023/10/10 14:16:43;;;;;;;8.93;5.82;;;22.00;99.90;;;;;;5128326;28;20204;-81
2023/10/10 14:19:11;;;;;;;12.57;6.18;;;21.80;99.90;;;;;;5128308;28;20220;-82
2023/10/10 14:21:39;;;;;;;9.10;5.63;;;21.80;99.90;;;;;;5129460;28;20208;-81
2023/10/10 14:24:08;;;;;;;12.40;5.78;;;21.60;99.90;;;;;;5125616;28;20207;-80
2023/10/10 14:26:35;;;;;;;7.75;5.40;;;21.60;99.90;;;;;;5130453;28;20203;-82
2023/10/10 14:29:06;;;;;;;9.05;5.38;;;21.40;99.90;;;;;;5124682;28;20243;-81
2023/10/10 14:31:34;;;;;;;10.75;5.88;;;21.40;99.90;;;;;;5125245;28;20223;-81
2023/10/10 14:34:04;;;;;;;10.63;5.88;;;21.40;99.90;;;;;;5135898;27;20232;-81
2023/10/10 14:36:38;;;;;;;8.38;5.32;;;21.30;99.90;;;;;;5133249;27;20205;-81
2023/10/10 14:39:08;;;;;;;8.82;5.60;;;21.30;99.90;;;;;;5129951;27;20223;-80
2023/10/10 14:41:35;;;;;;;9.65;5.32;;;21.30;99.90;;;;;;5130240;27;20666;-80
2023/10/10 14:44:03;;;;;;;8.68;5.20;;;21.30;99.90;;;;;;5131400;27;20208;-81
2023/10/10 14:46:32;;;;;;;12.00;5.93;;;21.40;99.90;;;;;;5124252;27;20731;-82
2023/10/10 14:49:05;;;;;;;8.82;5.45;;;21.40;99.90;;;;;;5130695;27;20687;-81
2023/10/10 14:51:34;;;;;;;9.55;6.03;;;21.40;99.90;;;;;;5135365;27;20658;-80
2023/10/10 14:54:06;;;;;;;7.50;5.20;;;21.30;99.90;;;;;;5129754;27;20203;-80
2023/10/10 14:56:35;;;;;;;10.50;5.72;;;21.30;99.90;;;;;;5127604;27;20255;-80
2023/10/10 14:59:04;;;;;;;9.57;5.18;;;21.30;99.90;;;;;;5124100;27;20212;-81